Nearby METAR Reports

 

KMDQ - Huntsville/Madis, Alabama, USA
Distance from station: S 20mi, 32km
Updated: Mon, 06-Jul-2020 1:35am CDT
Clear
Clear
 Wind from calm
Wind: Calm
Temperature: 70°F , 21°C
Dew Point: 70°F , 21°C
Humidity: 100%
Barometer: 29.95 inHg , 1014.2 hPa
Clouds: Clear
Visibility: 7 miles , 11 km
2020/07/06 06:35 KMDQ 060635Z AUTO 00000KT 7SM CLR 21/21 A2995 RMK A02 T02140210
KTHA - Tullahoma, Tennessee, USA
Distance from station: NE 24mi, 39km
Updated: Mon, 06-Jul-2020 1:35am CDT
Clear
Clear
 Wind from calm
Wind: Calm
Temperature: 73°F , 23°C
Dew Point: 70°F , 21°C
Humidity: 89%
Barometer: 29.96 inHg , 1014.6 hPa
Clouds: Clear
Visibility: 10 miles , 16 km
2020/07/06 06:35 KTHA 060635Z AUTO 00000KT 10SM CLR 23/21 A2996 RMK A01
 
KBGF - Winchester, Tennessee, USA
Distance from station: E 29mi, 46km
Updated: Mon, 06-Jul-2020 1:35am CDT
Clear
Clear
 Wind from calm
Wind: Calm
Temperature: 72°F , 22°C
Dew Point: 70°F , 21°C
Humidity: 94%
Barometer: 29.95 inHg , 1014.2 hPa
Clouds: Clear
Visibility: 10 miles , 16 km
2020/07/06 06:35 KBGF 060635Z AUTO 00000KT 10SM CLR 22/21 A2995 RMK A01
KHUA - Redstone Arsenal, Alabama, USA
Distance from station: S 33mi, 53km
Updated: Mon, 06-Jul-2020 12:58am CDT
Light rain, Mist, Overcast
Light rain, Mist, Overcast
 Wind from calm
Wind: Calm
Temperature: 70°F , 21°C
Dew Point: 70°F , 21°C
Humidity: 100%
Barometer: 29.93 inHg , 1013.5 hPa
Summary: Light rain, Mist
Clouds: Overcast
Visibility: 6 miles , 10 km
Cloud details: Overcast 20000 ft
2020/07/06 05:58 KHUA 060558Z AUTO 00000KT 6SM -RA BR OVC200 21/21 A2993 RMK AO2 RAB52 SLP129 P0000 60040 T02110206 10228 20208 403300208 58004 $
 
KHSV - Huntsville, Alabama, USA
Distance from station: SSW 37mi, 59km
Updated: Mon, 06-Jul-2020 12:53am CDT
Clear
Clear
 Wind from calm
Wind: Calm
Temperature: 72°F , 22°C
Dew Point: 70°F , 21°C
Humidity: 94%
Barometer: 29.94 inHg , 1013.9 hPa
Clouds: Clear
Visibility: 10 miles , 16 km
2020/07/06 05:53 KHSV 060553Z AUTO 00000KT 10SM CLR 22/21 A2994 RMK AO2 SLP131 60047 T02170206 10272 20217 403390217 58003 $
KDCU - Decatur, Alabama, USA
Distance from station: SSW 41mi, 66km
Updated: Mon, 06-Jul-2020 12:53am CDT

 Wind from calm
Wind: Calm
Temperature: 70°F , 21°C
Dew Point: 70°F , 21°C
Humidity: 100%
Barometer: 29.94 inHg , 1013.9 hPa
Visibility: 7 miles , 11 km
2020/07/06 05:53 KDCU 060553Z AUTO 00000KT 7SM 21/21 A2994 RMK AO2 SLP131 60004 T02110206 10261 20211 403330211 57006 $
 
KMRC - Columbia, Tennessee, USA
Distance from station: NW 44mi, 71km
Updated: Mon, 06-Jul-2020 1:35am CDT
Mist, Few clouds
Mist, Few clouds
 Wind from calm
Wind: Calm
Temperature: 70°F , 21°C
Dew Point: 70°F , 21°C
Humidity: 100%
Barometer: 29.93 inHg , 1013.5 hPa
Summary: Mist
Clouds: Few Clouds
Visibility: 6 miles , 10 km
Cloud details: Few Clouds 200 ft
2020/07/06 06:35 KMRC 060635Z AUTO 00000KT 6SM BR FEW002 21/21 A2993 RMK A01
K4A6 - Scottsboro, Alabama, USA
Distance from station: SE 46mi, 74km
Updated: Mon, 06-Jul-2020 1:35am CDT
Overcast
Overcast
 Wind from calm
Wind: Calm
Temperature: 73°F , 23°C
Dew Point: 73°F , 23°C
Humidity: 100%
Barometer: 29.95 inHg , 1014.2 hPa
Clouds: Overcast
Visibility: 9 miles , 14 km
Cloud details: Few Clouds 2400 ft
Mostly cloudy 4400 ft
Overcast 6000 ft
2020/07/06 06:35 K4A6 060635Z AUTO 00000KT 9SM FEW024 BKN044 OVC060 23/23 A2995 RMK AO2
 
K9A4 - Courtland, Alabama, USA
Distance from station: SW 55mi, 89km
Updated: Thu, 22-Aug-2013 2:15pm CDT
NOT Current
Clear
Clear
 Wind from NNE
Wind: NNE 6 mph , 9 km/h
Temperature: 84°F , 29°C
Heat Index: 89°F , 32°C
Dew Point: 72°F , 22°C
Humidity: 66%
Barometer: 30.10 inHg , 1019.3 hPa
Clouds: Clear
Visibility: 10 miles , 16 km
2013/08/22 19:15 K9A4 221915Z AUTO 03005KT 10SM CLR 29/22 A3010 RMK AO2
KMQY - Smyrna, Tennessee, USA
Distance from station: N 60mi, 96km
Updated: Mon, 06-Jul-2020 12:56am CDT
Clear
Clear
 Wind from calm
Wind: Calm
Temperature: 73°F , 23°C
Dew Point: 72°F , 22°C
Humidity: 94%
Barometer: 29.96 inHg , 1014.6 hPa
Clouds: Clear
Visibility: 10 miles , 16 km
2020/07/06 05:56 KMQY 060556Z AUTO 00000KT 10SM CLR 23/22 A2996 RMK AO2 SLP149 6//// T02330217 10250 20228 403330211 58008 PNO $
 
K3A1 - Cullman/Folsom F, Alabama, USA
Distance from station: SSW 63mi, 102km
Updated: Mon, 01-Jul-2013 4:35pm CDT
NOT Current
Partly cloudy
Partly cloudy
 Wind from WNW
Wind: WNW 7 mph , 11 km/h
Temperature: 82°F , 28°C
Heat Index: 83°F , 28°C
Dew Point: 63°F , 17°C
Humidity: 51%
Barometer: 29.87 inHg , 1011.5 hPa
Clouds: Partly cloudy
Visibility: 10 miles , 16 km
Cloud details: Partly cloudy 4600 ft
Partly cloudy 6000 ft
Partly cloudy 7000 ft
2013/07/01 21:35 K3A1 012135Z AUTO 30006KT 10SM SCT046 SCT060 SCT070 28/17 A2987 RMK AO2 T02780172
KMSL - Muscle Shoal, Alabama, USA
Distance from station: WSW 65mi, 104km
Updated: Mon, 06-Jul-2020 12:53am CDT
Clear
Clear
 Wind from calm
Wind: Calm
Temperature: 73°F , 23°C
Dew Point: 72°F , 22°C
Humidity: 94%
Barometer: 29.93 inHg , 1013.5 hPa
Clouds: Clear
Visibility: 9 miles , 14 km
2020/07/06 05:53 KMSL 060553Z AUTO 00000KT 9SM CLR 23/22 A2993 RMK AO2 SLP129 60037 T02280217 10278 20228 403390228 58005
 
K8A0 - Albertville Muni, Alabama, USA
Distance from station: SSE 66mi, 106km
Updated: Mon, 06-Jul-2020 1:35am CDT
Clear
Clear
 Wind from calm
Wind: Calm
Temperature: 72°F , 22°C
Dew Point: 70°F , 21°C
Humidity: 94%
Barometer: 29.95 inHg , 1014.2 hPa
Clouds: Clear
Visibility: 10 miles , 16 km
2020/07/06 06:35 K8A0 060635Z AUTO 00000KT 10SM CLR 22/21 A2995 RMK AO2
KBNA - Nashville, Tennessee, USA
Distance from station: N 67mi, 108km
Updated: Mon, 06-Jul-2020 12:53am CDT
Mostly cloudy
Mostly cloudy
 Wind from calm
Wind: Calm
Temperature: 73°F , 23°C
Dew Point: 70°F , 21°C
Humidity: 89%
Barometer: 29.96 inHg , 1014.6 hPa
Clouds: Mostly cloudy
Visibility: 10 miles , 16 km
Cloud details: Mostly cloudy 25000 ft
2020/07/06 05:53 KBNA 060553Z 00000KT 10SM BKN250 23/21 A2996 RMK AO2 SLP136 T02330206 10267 20233 403390228 58009
 
K4A9 - Ft Payne/Isbell, Alabama, USA
Distance from station: SE 68mi, 109km
Updated: Mon, 06-Jul-2020 1:35am CDT
Partly cloudy
Partly cloudy
 Wind from N
Wind: N 5 mph , 7 km/h
Temperature: 72°F , 22°C
Dew Point: 70°F , 21°C
Humidity: 94%
Barometer: 29.95 inHg , 1014.2 hPa
Clouds: Partly cloudy
Visibility: 10 miles , 16 km
Cloud details: Partly cloudy 6500 ft
2020/07/06 06:35 K4A9 060635Z AUTO 01004KT 10SM SCT065 22/21 A2995 RMK AO2 T02240214